AAR172 RKSI-ROAH
Flight info
| Callsign | AAR172 |
|---|---|
| Flight time | 1h 45m |
| Altitude | 40000 |
| Route | BOPTA3H BOPTA Z51 BEDES Y711 KIDOS Z81 CJU Y572 RUGMA Y579 ONC Y525 IHEYA |
| Aircraft | B772/H-SDE2E3FGHIJ5LORVWXY/LB1D1 |
Departure
| Time | 2026-05-05 14:57 |
|---|---|
| Airport | Incheon International Airport (RKSI) |
Arrival
| Time | 2026-05-05 16:43 |
|---|---|
| Airport | Naha International Airport (ROAH) |
| Time | Latitude | Longitude | Altitude | Speed | Heading |
|---|---|---|---|---|---|
| 2026-05-05 14:29 | 37.46394 | 126.43165 | 36 ft | 0 kts | 70° |
| 2026-05-05 14:50 | 37.46392 | 126.43157 | 37 ft | 4 kts | 68° |
| 2026-05-05 14:51 | 37.46379 | 126.43127 | 35 ft | 4 kts | 53° |
| 2026-05-05 14:51 | 37.46361 | 126.43103 | 37 ft | 4 kts | 37° |
| 2026-05-05 14:51 | 37.46339 | 126.43085 | 36 ft | 4 kts | 20° |
| 2026-05-05 14:51 | 37.46313 | 126.43078 | 36 ft | 4 kts | 356° |
| 2026-05-05 14:52 | 37.46297 | 126.43082 | 35 ft | 0 kts | 336° |
| 2026-05-05 14:53 | 37.46337 | 126.43046 | 37 ft | 21 kts | 308° |
| 2026-05-05 14:54 | 37.46313 | 126.42855 | 37 ft | 24 kts | 289° |
| 2026-05-05 14:54 | 37.46452 | 126.42714 | 37 ft | 30 kts | 325° |
| 2026-05-05 14:54 | 37.46626 | 126.42560 | 35 ft | 30 kts | 324° |
| 2026-05-05 14:54 | 37.46687 | 126.42505 | 37 ft | 30 kts | 324° |
| 2026-05-05 14:55 | 37.46817 | 126.42388 | 36 ft | 27 kts | 324° |
| 2026-05-05 14:55 | 37.46934 | 126.42283 | 37 ft | 27 kts | 325° |
| 2026-05-05 14:55 | 37.47010 | 126.42217 | 34 ft | 27 kts | 325° |
| 2026-05-05 14:55 | 37.47102 | 126.42134 | 36 ft | 27 kts | 325° |
| 2026-05-05 14:56 | 37.47258 | 126.41997 | 37 ft | 27 kts | 325° |
| 2026-05-05 14:56 | 37.47397 | 126.41849 | 37 ft | 21 kts | 287° |
| 2026-05-05 14:56 | 37.47331 | 126.41680 | 37 ft | 27 kts | 234° |
| 2026-05-05 14:56 | 37.47241 | 126.41598 | 37 ft | 13 kts | 160° |
| 2026-05-05 14:57 | 37.47035 | 126.41778 | 37 ft | 70 kts | 145° |
| 2026-05-05 14:57 | 37.46433 | 126.42315 | 38 ft | 141 kts | 144° |
| 2026-05-05 14:57 | 37.45524 | 126.43114 | 500 ft | 157 kts | 147° |
| 2026-05-05 14:57 | 37.44613 | 126.43853 | 1520 ft | 157 kts | 153° |
| 2026-05-05 14:58 | 37.43672 | 126.44587 | 2254 ft | 161 kts | 155° |
| 2026-05-05 14:58 | 37.42694 | 126.45330 | 2658 ft | 167 kts | 154° |
| 2026-05-05 14:58 | 37.41686 | 126.46090 | 3098 ft | 171 kts | 154° |
| 2026-05-05 14:58 | 37.40631 | 126.46860 | 3370 ft | 184 kts | 160° |
| 2026-05-05 14:59 | 37.39385 | 126.47232 | 3515 ft | 199 kts | 176° |
| 2026-05-05 14:59 | 37.37921 | 126.47495 | 3662 ft | 222 kts | 174° |
| 2026-05-05 14:59 | 37.36317 | 126.47817 | 3872 ft | 245 kts | 173° |
| 2026-05-05 14:59 | 37.34594 | 126.48175 | 4368 ft | 256 kts | 173° |
| 2026-05-05 15:00 | 37.32809 | 126.48555 | 4975 ft | 263 kts | 173° |
| 2026-05-05 15:00 | 37.31585 | 126.48819 | 5420 ft | 266 kts | 173° |
| 2026-05-05 15:00 | 37.29158 | 126.49348 | 6351 ft | 270 kts | 173° |
| 2026-05-05 15:00 | 37.27295 | 126.49756 | 7008 ft | 273 kts | 173° |
| 2026-05-05 15:01 | 37.25404 | 126.50170 | 7629 ft | 278 kts | 172° |
| 2026-05-05 15:01 | 37.23485 | 126.50595 | 8338 ft | 280 kts | 172° |
| 2026-05-05 15:01 | 37.21559 | 126.51020 | 9073 ft | 282 kts | 172° |
| 2026-05-05 15:01 | 37.19619 | 126.51450 | 9804 ft | 284 kts | 172° |
| 2026-05-05 15:02 | 37.17650 | 126.51885 | 10337 ft | 294 kts | 172° |
| 2026-05-05 15:02 | 37.15551 | 126.52346 | 10520 ft | 319 kts | 171° |
| 2026-05-05 15:02 | 37.13288 | 126.52845 | 10744 ft | 343 kts | 171° |
| 2026-05-05 15:02 | 37.10898 | 126.53372 | 11332 ft | 355 kts | 171° |
| 2026-05-05 15:03 | 37.08436 | 126.53917 | 12124 ft | 363 kts | 171° |
| 2026-05-05 15:03 | 37.05940 | 126.54470 | 13112 ft | 367 kts | 170° |
| 2026-05-05 15:03 | 37.03441 | 126.55022 | 14044 ft | 372 kts | 169° |
| 2026-05-05 15:03 | 37.00873 | 126.55589 | 14833 ft | 378 kts | 169° |
| 2026-05-05 15:04 | 36.98259 | 126.56166 | 15666 ft | 384 kts | 169° |
| 2026-05-05 15:04 | 36.95610 | 126.56749 | 16502 ft | 388 kts | 169° |
| 2026-05-05 15:04 | 36.92931 | 126.57339 | 17327 ft | 393 kts | 169° |
| 2026-05-05 15:04 | 36.90219 | 126.57935 | 18130 ft | 399 kts | 169° |
| 2026-05-05 15:05 | 36.84682 | 126.59150 | 19529 ft | 408 kts | 169° |
| 2026-05-05 15:05 | 36.81867 | 126.59767 | 20172 ft | 414 kts | 169° |
| 2026-05-05 15:05 | 36.79010 | 126.60393 | 20826 ft | 419 kts | 170° |
| 2026-05-05 15:06 | 36.76122 | 126.61026 | 21517 ft | 423 kts | 170° |
| 2026-05-05 15:06 | 36.73215 | 126.61687 | 22175 ft | 427 kts | 168° |
| 2026-05-05 15:06 | 36.70321 | 126.62607 | 22854 ft | 432 kts | 165° |
| 2026-05-05 15:06 | 36.67404 | 126.63607 | 23545 ft | 436 kts | 165° |
| 2026-05-05 15:07 | 36.64462 | 126.64616 | 24146 ft | 440 kts | 165° |
| 2026-05-05 15:07 | 36.61498 | 126.65625 | 24717 ft | 444 kts | 165° |
| 2026-05-05 15:07 | 36.58536 | 126.66626 | 25267 ft | 448 kts | 165° |
| 2026-05-05 15:07 | 36.55512 | 126.67643 | 25809 ft | 453 kts | 165° |
| 2026-05-05 15:08 | 36.52458 | 126.68667 | 26320 ft | 457 kts | 165° |
| 2026-05-05 15:08 | 36.49374 | 126.69699 | 26840 ft | 461 kts | 165° |
| 2026-05-05 15:08 | 36.46267 | 126.70738 | 27337 ft | 465 kts | 165° |
| 2026-05-05 15:08 | 36.43131 | 126.71786 | 27820 ft | 469 kts | 165° |
| 2026-05-05 15:09 | 36.39969 | 126.72842 | 28296 ft | 472 kts | 165° |
| 2026-05-05 15:09 | 36.36785 | 126.73907 | 28771 ft | 475 kts | 165° |
| 2026-05-05 15:09 | 36.33587 | 126.74982 | 29234 ft | 478 kts | 165° |
| 2026-05-05 15:09 | 36.30381 | 126.76071 | 29767 ft | 469 kts | 165° |
| 2026-05-05 15:10 | 36.27212 | 126.77137 | 29989 ft | 477 kts | 165° |
| 2026-05-05 15:10 | 36.23982 | 126.78222 | 30151 ft | 482 kts | 164° |
| 2026-05-05 15:10 | 36.20767 | 126.79328 | 30269 ft | 482 kts | 166° |
| 2026-05-05 15:10 | 36.17468 | 126.80232 | 30413 ft | 488 kts | 172° |
| 2026-05-05 15:11 | 36.14101 | 126.80682 | 30860 ft | 486 kts | 178° |
| 2026-05-05 15:11 | 36.10728 | 126.80779 | 31304 ft | 484 kts | 183° |
| 2026-05-05 15:11 | 36.07368 | 126.80476 | 31628 ft | 485 kts | 187° |
| 2026-05-05 15:11 | 36.04041 | 126.80065 | 31884 ft | 487 kts | 187° |
| 2026-05-05 15:12 | 36.00665 | 126.79649 | 32208 ft | 488 kts | 187° |
| 2026-05-05 15:12 | 35.97290 | 126.79257 | 32652 ft | 485 kts | 187° |
| 2026-05-05 15:12 | 35.93948 | 126.78891 | 33327 ft | 478 kts | 188° |
| 2026-05-05 15:12 | 35.90648 | 126.78537 | 33853 ft | 475 kts | 188° |
| 2026-05-05 15:13 | 35.87355 | 126.78183 | 34216 ft | 475 kts | 188° |
| 2026-05-05 15:13 | 35.84061 | 126.77827 | 34501 ft | 476 kts | 188° |
| 2026-05-05 15:13 | 35.80760 | 126.77472 | 34808 ft | 475 kts | 188° |
| 2026-05-05 15:13 | 35.77469 | 126.77117 | 35155 ft | 474 kts | 188° |
| 2026-05-05 15:14 | 35.74196 | 126.76766 | 35558 ft | 471 kts | 189° |
| 2026-05-05 15:14 | 35.70933 | 126.76415 | 35887 ft | 470 kts | 189° |
| 2026-05-05 15:14 | 35.67665 | 126.76063 | 36181 ft | 470 kts | 189° |
| 2026-05-05 15:14 | 35.64412 | 126.75713 | 36462 ft | 470 kts | 189° |
| 2026-05-05 15:15 | 35.61156 | 126.75364 | 36761 ft | 470 kts | 189° |
| 2026-05-05 15:15 | 35.57899 | 126.75015 | 37082 ft | 468 kts | 189° |
| 2026-05-05 15:15 | 35.54952 | 126.74698 | 37447 ft | 465 kts | 189° |
| 2026-05-05 15:15 | 35.51757 | 126.74351 | 37602 ft | 468 kts | 189° |
| 2026-05-05 15:16 | 35.48561 | 126.74012 | 37789 ft | 470 kts | 189° |
| 2026-05-05 15:16 | 35.45339 | 126.73672 | 38075 ft | 469 kts | 189° |
| 2026-05-05 15:16 | 35.42090 | 126.73330 | 38408 ft | 468 kts | 189° |
| 2026-05-05 15:16 | 35.38851 | 126.72987 | 38694 ft | 466 kts | 190° |
| 2026-05-05 15:17 | 35.35626 | 126.72646 | 38978 ft | 464 kts | 190° |
| 2026-05-05 15:17 | 35.32407 | 126.72304 | 39136 ft | 465 kts | 190° |
| 2026-05-05 15:17 | 35.29181 | 126.71961 | 39291 ft | 466 kts | 190° |
| 2026-05-05 15:17 | 35.25949 | 126.71619 | 39450 ft | 466 kts | 190° |
| 2026-05-05 15:18 | 35.22720 | 126.71278 | 39631 ft | 465 kts | 190° |
| 2026-05-05 15:18 | 35.20580 | 126.71052 | 39754 ft | 465 kts | 190° |
| 2026-05-05 15:18 | 35.17365 | 126.70714 | 39958 ft | 464 kts | 191° |
| 2026-05-05 15:19 | 35.10915 | 126.70033 | 40089 ft | 465 kts | 191° |
| 2026-05-05 15:19 | 35.03419 | 126.69241 | 40137 ft | 464 kts | 191° |
| 2026-05-05 15:20 | 34.98025 | 126.68670 | 40138 ft | 464 kts | 191° |
| 2026-05-05 15:20 | 34.91632 | 126.67994 | 40138 ft | 464 kts | 191° |
| 2026-05-05 15:21 | 34.85199 | 126.67316 | 40136 ft | 464 kts | 191° |
| 2026-05-05 15:21 | 34.78794 | 126.66642 | 40129 ft | 463 kts | 191° |
| 2026-05-05 15:22 | 34.72365 | 126.65967 | 40131 ft | 464 kts | 191° |
| 2026-05-05 15:22 | 34.65938 | 126.65292 | 40119 ft | 463 kts | 191° |
| 2026-05-05 15:23 | 34.59529 | 126.64622 | 40113 ft | 462 kts | 191° |
| 2026-05-05 15:23 | 34.53173 | 126.63957 | 40129 ft | 460 kts | 191° |
| 2026-05-05 15:24 | 34.46795 | 126.63290 | 40140 ft | 460 kts | 191° |
| 2026-05-05 15:24 | 34.40422 | 126.62623 | 40128 ft | 459 kts | 191° |
| 2026-05-05 15:25 | 34.34069 | 126.61937 | 40138 ft | 458 kts | 191° |
| 2026-05-05 15:25 | 34.27721 | 126.61250 | 40142 ft | 458 kts | 191° |
| 2026-05-05 15:26 | 34.21381 | 126.60575 | 40141 ft | 458 kts | 191° |
| 2026-05-05 15:26 | 34.15042 | 126.59917 | 40133 ft | 457 kts | 191° |
| 2026-05-05 15:27 | 34.08713 | 126.59259 | 40141 ft | 456 kts | 191° |
| 2026-05-05 15:27 | 34.02393 | 126.58601 | 40143 ft | 456 kts | 191° |
| 2026-05-05 15:28 | 33.96082 | 126.57944 | 40133 ft | 455 kts | 191° |
| 2026-05-05 15:28 | 33.89775 | 126.57289 | 40130 ft | 454 kts | 191° |
| 2026-05-05 15:29 | 33.83447 | 126.56840 | 40131 ft | 459 kts | 186° |
| 2026-05-05 15:29 | 33.77071 | 126.57511 | 40116 ft | 464 kts | 181° |
| 2026-05-05 15:30 | 33.70648 | 126.58372 | 40123 ft | 464 kts | 181° |
| 2026-05-05 15:30 | 33.64229 | 126.59194 | 40131 ft | 463 kts | 181° |
| 2026-05-05 15:31 | 33.57824 | 126.59993 | 40126 ft | 464 kts | 181° |
| 2026-05-05 15:31 | 33.51411 | 126.60792 | 40119 ft | 463 kts | 181° |
| 2026-05-05 15:32 | 33.44997 | 126.61591 | 40128 ft | 463 kts | 181° |
| 2026-05-05 15:32 | 33.38594 | 126.62557 | 40132 ft | 468 kts | 176° |
| 2026-05-05 15:33 | 33.32280 | 126.64722 | 40113 ft | 475 kts | 169° |
| 2026-05-05 15:33 | 33.26009 | 126.67233 | 40131 ft | 474 kts | 169° |
| 2026-05-05 15:34 | 33.19757 | 126.69649 | 40139 ft | 474 kts | 170° |
| 2026-05-05 15:34 | 33.13489 | 126.72080 | 40142 ft | 474 kts | 170° |
| 2026-05-05 15:35 | 33.07257 | 126.74503 | 40132 ft | 473 kts | 170° |
| 2026-05-05 15:35 | 33.01006 | 126.76927 | 40141 ft | 472 kts | 171° |
| 2026-05-05 15:36 | 32.94770 | 126.79341 | 40151 ft | 471 kts | 171° |
| 2026-05-05 15:36 | 32.88545 | 126.81754 | 40149 ft | 470 kts | 171° |
| 2026-05-05 15:37 | 32.82333 | 126.84159 | 40153 ft | 470 kts | 171° |
| 2026-05-05 15:37 | 32.76119 | 126.86560 | 40142 ft | 469 kts | 171° |
| 2026-05-05 15:38 | 32.69914 | 126.88953 | 40148 ft | 469 kts | 171° |
| 2026-05-05 15:38 | 32.63708 | 126.91344 | 40150 ft | 469 kts | 171° |
| 2026-05-05 15:39 | 32.57502 | 126.93733 | 40150 ft | 468 kts | 171° |
| 2026-05-05 15:39 | 32.51345 | 126.96098 | 40151 ft | 468 kts | 171° |
| 2026-05-05 15:40 | 32.45132 | 126.98322 | 40152 ft | 465 kts | 173° |
| 2026-05-05 15:40 | 32.38902 | 127.00359 | 40145 ft | 464 kts | 173° |
| 2026-05-05 15:41 | 32.32678 | 127.02425 | 40136 ft | 464 kts | 173° |
| 2026-05-05 15:41 | 32.26474 | 127.04511 | 40145 ft | 463 kts | 173° |
| 2026-05-05 15:42 | 32.20276 | 127.06598 | 40145 ft | 463 kts | 173° |
| 2026-05-05 15:42 | 32.14081 | 127.08682 | 40147 ft | 463 kts | 173° |
| 2026-05-05 15:43 | 32.07886 | 127.10763 | 40134 ft | 462 kts | 173° |
| 2026-05-05 15:43 | 32.01697 | 127.12836 | 40144 ft | 462 kts | 174° |
| 2026-05-05 15:44 | 31.95512 | 127.14897 | 40147 ft | 462 kts | 174° |
| 2026-05-05 15:44 | 31.89325 | 127.16953 | 40147 ft | 462 kts | 174° |
| 2026-05-05 15:45 | 31.83144 | 127.19007 | 40134 ft | 461 kts | 174° |
| 2026-05-05 15:45 | 31.76968 | 127.21058 | 40139 ft | 461 kts | 174° |
| 2026-05-05 15:46 | 31.70798 | 127.23103 | 40145 ft | 461 kts | 174° |
| 2026-05-05 15:46 | 31.64672 | 127.25132 | 40141 ft | 460 kts | 174° |
| 2026-05-05 15:47 | 31.58520 | 127.27165 | 40134 ft | 459 kts | 175° |
| 2026-05-05 15:47 | 31.52372 | 127.29194 | 40142 ft | 458 kts | 175° |
| 2026-05-05 15:48 | 31.46236 | 127.31217 | 40144 ft | 458 kts | 175° |
| 2026-05-05 15:48 | 31.40101 | 127.33237 | 40143 ft | 458 kts | 175° |
| 2026-05-05 15:49 | 31.33970 | 127.35253 | 40134 ft | 457 kts | 175° |
| 2026-05-05 15:49 | 31.27895 | 127.37249 | 40139 ft | 456 kts | 175° |
| 2026-05-05 15:50 | 31.21787 | 127.39261 | 40132 ft | 456 kts | 175° |
| 2026-05-05 15:50 | 31.15688 | 127.41296 | 40140 ft | 456 kts | 175° |
| 2026-05-05 15:51 | 31.09590 | 127.43331 | 40122 ft | 455 kts | 175° |
| 2026-05-05 15:51 | 31.03503 | 127.45358 | 40136 ft | 455 kts | 175° |
| 2026-05-05 15:52 | 30.97418 | 127.47378 | 40138 ft | 455 kts | 175° |
| 2026-05-05 15:52 | 30.91336 | 127.49396 | 40131 ft | 454 kts | 175° |
| 2026-05-05 15:53 | 30.85252 | 127.51409 | 40111 ft | 454 kts | 175° |
| 2026-05-05 15:53 | 30.79217 | 127.53405 | 40135 ft | 454 kts | 175° |
| 2026-05-05 15:54 | 30.73132 | 127.55414 | 40135 ft | 455 kts | 175° |
| 2026-05-05 15:54 | 30.67043 | 127.57423 | 40132 ft | 455 kts | 175° |
| 2026-05-05 15:55 | 30.60954 | 127.59429 | 40120 ft | 455 kts | 175° |
| 2026-05-05 15:55 | 30.54857 | 127.61435 | 40122 ft | 455 kts | 175° |
| 2026-05-05 15:56 | 30.48765 | 127.63437 | 40130 ft | 455 kts | 175° |
| 2026-05-05 15:56 | 30.42660 | 127.65441 | 40132 ft | 456 kts | 175° |
| 2026-05-05 15:57 | 30.36553 | 127.67442 | 40131 ft | 456 kts | 175° |
| 2026-05-05 15:57 | 30.30445 | 127.69442 | 40131 ft | 456 kts | 175° |
| 2026-05-05 15:58 | 30.24339 | 127.71437 | 40128 ft | 456 kts | 175° |
| 2026-05-05 15:58 | 30.18229 | 127.73423 | 40121 ft | 456 kts | 176° |
| 2026-05-05 15:59 | 30.12125 | 127.75403 | 40130 ft | 456 kts | 176° |
| 2026-05-05 15:59 | 30.06017 | 127.77384 | 40122 ft | 456 kts | 175° |
| 2026-05-05 16:00 | 29.99903 | 127.79365 | 40126 ft | 456 kts | 176° |
| 2026-05-05 16:00 | 29.93825 | 127.81332 | 40129 ft | 456 kts | 176° |
| 2026-05-05 16:01 | 29.87706 | 127.83310 | 40128 ft | 457 kts | 175° |
| 2026-05-05 16:01 | 29.81600 | 127.85453 | 40117 ft | 461 kts | 173° |
| 2026-05-05 16:02 | 29.75513 | 127.87843 | 40112 ft | 462 kts | 172° |
| 2026-05-05 16:02 | 29.69418 | 127.90209 | 40115 ft | 462 kts | 173° |
| 2026-05-05 16:03 | 29.63313 | 127.92535 | 40118 ft | 462 kts | 173° |
| 2026-05-05 16:03 | 29.57210 | 127.94850 | 40085 ft | 462 kts | 173° |
| 2026-05-05 16:04 | 29.51108 | 127.97165 | 40111 ft | 462 kts | 173° |
| 2026-05-05 16:04 | 29.45034 | 127.99454 | 40110 ft | 463 kts | 173° |
| 2026-05-05 16:05 | 29.38908 | 128.01760 | 40110 ft | 464 kts | 173° |
| 2026-05-05 16:05 | 29.32769 | 128.04070 | 40104 ft | 464 kts | 173° |
| 2026-05-05 16:06 | 29.26635 | 128.06377 | 40095 ft | 465 kts | 173° |
| 2026-05-05 16:06 | 29.20468 | 128.08692 | 40103 ft | 466 kts | 173° |
| 2026-05-05 16:07 | 29.14611 | 128.10889 | 40101 ft | 467 kts | 173° |
| 2026-05-05 16:07 | 29.08428 | 128.13206 | 40101 ft | 468 kts | 173° |
| 2026-05-05 16:08 | 29.03245 | 128.15146 | 40092 ft | 468 kts | 173° |
| 2026-05-05 16:08 | 28.97088 | 128.17359 | 40099 ft | 466 kts | 174° |
| 2026-05-05 16:09 | 28.90841 | 128.19497 | 40080 ft | 466 kts | 174° |
| 2026-05-05 16:09 | 28.84672 | 128.21608 | 40096 ft | 466 kts | 174° |
| 2026-05-05 16:10 | 28.78457 | 128.23751 | 40099 ft | 466 kts | 174° |
| 2026-05-05 16:10 | 28.72263 | 128.25891 | 40105 ft | 465 kts | 174° |
| 2026-05-05 16:11 | 28.66079 | 128.28025 | 40100 ft | 464 kts | 174° |
| 2026-05-05 16:12 | 28.53776 | 128.32259 | 40070 ft | 462 kts | 173° |
| 2026-05-05 16:13 | 28.38481 | 128.37510 | 40105 ft | 457 kts | 174° |
| 2026-05-05 16:13 | 28.32402 | 128.39591 | 40105 ft | 456 kts | 174° |
| 2026-05-05 16:14 | 28.20276 | 128.43737 | 40102 ft | 454 kts | 174° |
| 2026-05-05 16:15 | 28.08174 | 128.47903 | 40101 ft | 454 kts | 173° |
| 2026-05-05 16:16 | 27.96072 | 128.52067 | 40096 ft | 455 kts | 174° |
| 2026-05-05 16:17 | 27.86951 | 128.55181 | 40099 ft | 457 kts | 174° |
| 2026-05-05 16:18 | 27.77833 | 128.58259 | 40096 ft | 459 kts | 174° |
| 2026-05-05 16:19 | 27.68643 | 128.61364 | 40089 ft | 460 kts | 174° |
| 2026-05-05 16:19 | 27.59435 | 128.64471 | 40080 ft | 461 kts | 174° |
| 2026-05-05 16:20 | 27.47210 | 128.67260 | 40063 ft | 424 kts | 200° |
| 2026-05-05 16:21 | 27.42007 | 128.64574 | 40102 ft | 409 kts | 219° |
| 2026-05-05 16:22 | 27.36733 | 128.57719 | 40057 ft | 384 kts | 241° |
| 2026-05-05 16:22 | 27.34101 | 128.52532 | 39117 ft | 380 kts | 240° |
| 2026-05-05 16:23 | 27.30828 | 128.47913 | 36144 ft | 386 kts | 225° |
| 2026-05-05 16:23 | 27.28748 | 128.45919 | 34016 ft | 401 kts | 221° |
| 2026-05-05 16:23 | 27.23780 | 128.42583 | 30894 ft | 428 kts | 212° |
| 2026-05-05 16:24 | 27.21124 | 128.41005 | 30324 ft | 434 kts | 212° |
| 2026-05-05 16:24 | 27.18507 | 128.39432 | 30033 ft | 431 kts | 212° |
| 2026-05-05 16:24 | 27.13252 | 128.36267 | 28873 ft | 426 kts | 212° |
| 2026-05-05 16:25 | 27.10650 | 128.34701 | 28159 ft | 422 kts | 212° |
| 2026-05-05 16:25 | 27.05522 | 128.31620 | 26806 ft | 415 kts | 212° |
| 2026-05-05 16:25 | 27.02988 | 128.30099 | 26150 ft | 411 kts | 212° |
| 2026-05-05 16:26 | 26.97964 | 128.27086 | 24836 ft | 408 kts | 212° |
| 2026-05-05 16:26 | 26.92975 | 128.24095 | 23516 ft | 405 kts | 212° |
| 2026-05-05 16:27 | 26.90528 | 128.22630 | 22777 ft | 403 kts | 212° |
| 2026-05-05 16:27 | 26.88062 | 128.21154 | 22111 ft | 399 kts | 211° |
| 2026-05-05 16:27 | 26.85617 | 128.19693 | 21486 ft | 396 kts | 211° |
| 2026-05-05 16:27 | 26.83201 | 128.18248 | 20883 ft | 392 kts | 211° |
| 2026-05-05 16:28 | 26.80800 | 128.16813 | 20286 ft | 389 kts | 211° |
| 2026-05-05 16:28 | 26.78419 | 128.15391 | 19696 ft | 386 kts | 211° |
| 2026-05-05 16:28 | 26.76054 | 128.13979 | 19099 ft | 384 kts | 211° |
| 2026-05-05 16:28 | 26.73705 | 128.12577 | 18516 ft | 381 kts | 210° |
| 2026-05-05 16:29 | 26.71431 | 128.11224 | 17865 ft | 359 kts | 210° |
| 2026-05-05 16:29 | 26.69291 | 128.09952 | 17309 ft | 338 kts | 210° |
| 2026-05-05 16:29 | 26.67248 | 128.08736 | 16821 ft | 332 kts | 210° |
| 2026-05-05 16:29 | 26.65213 | 128.07522 | 16340 ft | 331 kts | 210° |
| 2026-05-05 16:30 | 26.63205 | 128.06324 | 15864 ft | 331 kts | 210° |
| 2026-05-05 16:30 | 26.61141 | 128.05095 | 15383 ft | 332 kts | 210° |
| 2026-05-05 16:30 | 26.59126 | 128.03897 | 14911 ft | 333 kts | 210° |
| 2026-05-05 16:30 | 26.57081 | 128.02677 | 14414 ft | 334 kts | 210° |
| 2026-05-05 16:31 | 26.55026 | 128.01454 | 13907 ft | 335 kts | 210° |
| 2026-05-05 16:31 | 26.52962 | 128.00225 | 13339 ft | 337 kts | 210° |
| 2026-05-05 16:31 | 26.50888 | 127.98994 | 12798 ft | 338 kts | 209° |
| 2026-05-05 16:31 | 26.48816 | 127.97766 | 12295 ft | 337 kts | 209° |
| 2026-05-05 16:32 | 26.46745 | 127.96537 | 11777 ft | 338 kts | 209° |
| 2026-05-05 16:32 | 26.44693 | 127.95320 | 11383 ft | 334 kts | 209° |
| 2026-05-05 16:32 | 26.42671 | 127.94122 | 11239 ft | 324 kts | 209° |
| 2026-05-05 16:32 | 26.40716 | 127.92964 | 11087 ft | 313 kts | 209° |
| 2026-05-05 16:33 | 26.38812 | 127.91845 | 10857 ft | 306 kts | 208° |
| 2026-05-05 16:33 | 26.36897 | 127.90829 | 10518 ft | 303 kts | 206° |
| 2026-05-05 16:33 | 26.34985 | 127.89864 | 10164 ft | 301 kts | 206° |
| 2026-05-05 16:33 | 26.33109 | 127.88922 | 9824 ft | 298 kts | 206° |
| 2026-05-05 16:34 | 26.31238 | 127.87980 | 9490 ft | 282 kts | 205° |
| 2026-05-05 16:34 | 26.29543 | 127.87124 | 9107 ft | 262 kts | 205° |
| 2026-05-05 16:34 | 26.27924 | 127.86303 | 8641 ft | 248 kts | 205° |
| 2026-05-05 16:34 | 26.26386 | 127.85520 | 8315 ft | 244 kts | 205° |
| 2026-05-05 16:35 | 26.24866 | 127.84745 | 8030 ft | 256 kts | 205° |
| 2026-05-05 16:35 | 26.23238 | 127.83915 | 7694 ft | 260 kts | 205° |
| 2026-05-05 16:35 | 26.21588 | 127.83074 | 7335 ft | 261 kts | 205° |
| 2026-05-05 16:35 | 26.19937 | 127.82233 | 6999 ft | 262 kts | 205° |
| 2026-05-05 16:36 | 26.18283 | 127.81390 | 6655 ft | 258 kts | 205° |
| 2026-05-05 16:36 | 26.16687 | 127.80577 | 6305 ft | 248 kts | 204° |
| 2026-05-05 16:36 | 26.15145 | 127.79789 | 5979 ft | 241 kts | 204° |
| 2026-05-05 16:36 | 26.13608 | 127.79008 | 5682 ft | 247 kts | 204° |
| 2026-05-05 16:37 | 26.12017 | 127.78198 | 5334 ft | 254 kts | 204° |
| 2026-05-05 16:37 | 26.10442 | 127.77393 | 4992 ft | 244 kts | 204° |
| 2026-05-05 16:37 | 26.08897 | 127.76598 | 4684 ft | 247 kts | 203° |
| 2026-05-05 16:37 | 26.07364 | 127.75820 | 4342 ft | 236 kts | 202° |
| 2026-05-05 16:38 | 26.05974 | 127.74943 | 4016 ft | 226 kts | 221° |
| 2026-05-05 16:38 | 26.05197 | 127.73469 | 3726 ft | 222 kts | 248° |
| 2026-05-05 16:38 | 26.04984 | 127.71776 | 3468 ft | 223 kts | 263° |
| 2026-05-05 16:38 | 26.04930 | 127.70081 | 3182 ft | 219 kts | 265° |
| 2026-05-05 16:39 | 26.04870 | 127.68418 | 2779 ft | 213 kts | 265° |
| 2026-05-05 16:39 | 26.05031 | 127.66781 | 2162 ft | 216 kts | 294° |
| 2026-05-05 16:39 | 26.05966 | 127.65599 | 1814 ft | 194 kts | 338° |
| 2026-05-05 16:39 | 26.07167 | 127.65300 | 1819 ft | 167 kts | 358° |
| 2026-05-05 16:40 | 26.08275 | 127.65140 | 1770 ft | 152 kts | 1° |
| 2026-05-05 16:40 | 26.09317 | 127.65066 | 1727 ft | 153 kts | 4° |
| 2026-05-05 16:40 | 26.10375 | 127.65013 | 1500 ft | 149 kts | 5° |
| 2026-05-05 16:40 | 26.11395 | 127.64966 | 1304 ft | 145 kts | 5° |
| 2026-05-05 16:41 | 26.12387 | 127.64920 | 1120 ft | 144 kts | 6° |
| 2026-05-05 16:41 | 26.13406 | 127.64874 | 943 ft | 145 kts | 6° |
| 2026-05-05 16:41 | 26.14397 | 127.64828 | 752 ft | 143 kts | 4° |
| 2026-05-05 16:41 | 26.15395 | 127.64784 | 603 ft | 145 kts | 3° |
| 2026-05-05 16:42 | 26.16410 | 127.64727 | 404 ft | 143 kts | 3° |
| 2026-05-05 16:42 | 26.17401 | 127.64679 | 227 ft | 139 kts | 4° |
| 2026-05-05 16:42 | 26.18366 | 127.64637 | 57 ft | 140 kts | 2° |
| 2026-05-05 16:42 | 26.19286 | 127.64596 | 33 ft | 118 kts | 358° |
| 2026-05-05 16:43 | 26.19952 | 127.64569 | 29 ft | 74 kts | 357° |
| 2026-05-05 16:43 | 26.20278 | 127.64554 | 32 ft | 19 kts | 1° |
| 2026-05-05 16:43 | 26.20357 | 127.64645 | 32 ft | 16 kts | 53° |
| 2026-05-05 16:43 | 26.20411 | 127.64688 | 32 ft | 9 kts | 28° |
| 2026-05-05 16:44 | 26.20466 | 127.64721 | 33 ft | 9 kts | 27° |
| 2026-05-05 16:44 | 26.20526 | 127.64747 | 33 ft | 12 kts | 10° |
| 2026-05-05 16:44 | 26.20643 | 127.64746 | 33 ft | 12 kts | 355° |
| 2026-05-05 16:44 | 26.20729 | 127.64739 | 33 ft | 12 kts | 356° |
| 2026-05-05 16:45 | 26.20816 | 127.64733 | 32 ft | 12 kts | 357° |
| 2026-05-05 16:45 | 26.20902 | 127.64733 | 32 ft | 12 kts | 18° |
| 2026-05-05 16:45 | 26.20908 | 127.64759 | 33 ft | 6 kts | 92° |
| 2026-05-05 16:45 | 26.20913 | 127.64826 | 31 ft | 9 kts | 70° |
| 2026-05-05 16:46 | 26.20963 | 127.64860 | 33 ft | 9 kts | 1° |
| 2026-05-05 16:46 | 26.21022 | 127.64836 | 33 ft | 9 kts | 339° |
| 2026-05-05 16:46 | 26.21077 | 127.64840 | 33 ft | 1 kts | 43° |
| 2026-05-05 16:46 | 26.21078 | 127.64842 | 33 ft | 3 kts | 50° |
| 2026-05-05 16:47 | 26.21079 | 127.64892 | 33 ft | 6 kts | 86° |
| 2026-05-05 16:47 | 26.21082 | 127.64932 | 33 ft | 4 kts | 87° |
| 2026-05-05 16:47 | 26.21083 | 127.64959 | 33 ft | 2 kts | 86° |
| 2026-05-05 16:47 | 26.21083 | 127.64971 | 33 ft | 1 kts | 88° |
| 2026-05-05 16:48 | 26.21083 | 127.64979 | 33 ft | 1 kts | 88° |
| 2026-05-05 16:48 | 26.21083 | 127.64980 | 33 ft | 0 kts | 88° |